Time;durP1;ratioP1;P1;durP2;ratioP2;P2;SDS_P1;SDS_P2;PMS_P1;PMS_P2;Temp;Humidity;BMP_temperature;BMP_pressure;BME280_temperature;BME280_humidity;BME280_pressure;Samples;Min_cycle;Max_cycle;Signal;HPM_P1;HPM_P2
2022/04/24 00:00:08;;;;;;;;;;;;;;;;;;322039;30;850;-83
2022/04/24 00:00:18;;;;;;;;;;;;;;;;;;321975;30;929;-83
2022/04/24 00:00:29;;;;;;;;;;;;;;;;;;322056;30;869;-83
2022/04/24 00:00:39;;;;;;;;;;;;;;;;;;321972;30;1020;-84
2022/04/24 00:00:49;;;;;;;;;;;;;;;;;;321831;30;1121;-84
2022/04/24 00:00:59;;;;;;;;;;;;;;;;;;322041;30;937;-83
2022/04/24 00:01:09;;;;;;;;;;;;;;;;;;321979;30;806;-83
2022/04/24 00:01:20;;;;;;;;;;;;;;;;;;322018;30;869;-84
2022/04/24 00:01:30;;;;;;;;;;;;;;;;;;321988;30;932;-83
2022/04/24 00:01:41;;;;;;;;;;;;;;;;;;322048;30;790;-83
2022/04/24 00:01:51;;;;;;;;;;;;;;;;;;322031;30;937;-83
2022/04/24 00:02:01;;;;;;;;;;;;;;;;;;321801;30;1013;-83
2022/04/24 00:02:12;;;;;;;;;;;;;;;;;;322250;30;1329;-83
2022/04/24 00:02:23;;;;;;;;;;;;;;;;;;323215;30;896;-83
2022/04/24 00:02:33;;;;;;;;;;;;;;;;;;323156;30;985;-83
2022/04/24 00:02:44;;;;;;;;;;;;;;;;;;323193;30;1012;-83
2022/04/24 00:02:54;;;;;;;;;;;;;;;;;;323122;30;976;-83
2022/04/24 00:03:05;;;;;;;;;;;;;;;;;;323196;30;866;-83
2022/04/24 00:03:16;;;;;;;;;;;;;;;;;;323175;30;1027;-83
2022/04/24 00:03:26;;;;;;;;;;;;;;;;;;322464;30;1412;-83
2022/04/24 00:03:36;;;;;;;;;;;;;;;;;;323008;30;1985;-83
2022/04/24 00:03:46;;;;;;;;;;;;;;;;;;322957;30;1027;-83
2022/04/24 00:03:57;;;;;;;;;;;;;;;;;;323151;30;890;-84
2022/04/24 00:04:07;;;;;;;;;;;;;;;;;;323177;30;1012;-83
2022/04/24 00:04:17;;;;;;;;;;;;;;;;;;323217;30;877;-83
2022/04/24 00:04:27;;;;;;;;;;;;;;;;;;323156;30;913;-83
2022/04/24 00:04:38;;;;;;;;;;;;;;;;;;323238;30;925;-84
2022/04/24 00:04:49;;;;;;;;;;;;;;;;;;323188;30;980;-83
2022/04/24 00:04:59;;;;;;;;;;;;;;;;;;323151;30;869;-83
2022/04/24 00:05:10;;;;;;;;;;;;;;;;;;323204;30;996;-83
2022/04/24 00:05:20;;;;;;;;;;;;;;;;;;323210;30;877;-84
2022/04/24 00:05:30;;;;;;;;;;;;;;;;;;322417;30;1539;-83
2022/04/24 00:05:41;;;;;;;;;;;;;;;;;;323061;30;877;-83
2022/04/24 00:05:51;;;;;;;;;;;;;;;;;;323171;30;937;-84
2022/04/24 00:06:01;;;;;;;;;;;;;;;;;;323136;30;826;-83
2022/04/24 00:06:11;;;;;;;;;;;;;;;;;;323187;30;937;-84
2022/04/24 00:06:21;;;;;;;;;;;;;;;;;;323212;30;794;-83
2022/04/24 00:06:32;;;;;;;;;;;;;;;;;;323176;30;884;-84
2022/04/24 00:06:46;;;;;;;;;;;;;;;;;;323234;30;956;-83
2022/04/24 00:06:56;;;;;;;;;;;;;;;;;;323152;30;936;-84
2022/04/24 00:07:10;;;;;;;;;;;;;;;;;;323120;30;925;-83
2022/04/24 00:07:20;;;;;;;;;;;;;;;;;;323185;30;897;-83
2022/04/24 00:07:31;;;;;;;;;;;;;;;;;;323175;30;896;-84
2022/04/24 00:07:41;;;;;;;;;;;;;;;;;;323089;30;893;-83
2022/04/24 00:07:52;;;;;;;;;;;;;;;;;;322974;30;1059;-83
2022/04/24 00:08:02;;;;;;;;;;;;;;;;;;323212;30;913;-83
2022/04/24 00:08:12;;;;;;;;;;;;;;;;;;322927;30;1222;-83
2022/04/24 00:08:22;;;;;;;;;;;;;;;;;;323216;30;858;-84
2022/04/24 00:08:32;;;;;;;;;;;;;;;;;;322640;30;1500;-83
2022/04/24 00:08:43;;;;;;;;;;;;;;;;;;323100;30;1629;-83
2022/04/24 00:08:53;;;;;;;;;;;;;;;;;;323141;30;969;-83
2022/04/24 00:09:03;;;;;;;;;;;;;;;;;;323076;30;885;-83
2022/04/24 00:09:14;;;;;;;;;;;;;;;;;;323023;30;1251;-83
2022/04/24 00:09:24;;;;;;;;;;;;;;;;;;323192;30;996;-83
2022/04/24 00:09:36;;;;;;;;;;;;;;;;;;323007;30;1009;-83
2022/04/24 00:09:46;;;;;;;;;;;;;;;;;;323194;30;932;-83
2022/04/24 00:09:56;;;;;;;;;;;;;;;;;;322983;30;1025;-83
2022/04/24 00:10:07;;;;;;;;;;;;;;;;;;323157;30;834;-84
2022/04/24 00:10:17;;;;;;;;;;;;;;;;;;323205;30;988;-84
2022/04/24 00:10:27;;;;;;;;;;;;;;;;;;323111;30;1308;-83
2022/04/24 00:10:38;;;;;;;;;;;;;;;;;;323250;30;940;-84
2022/04/24 00:10:48;;;;;;;;;;;;;;;;;;323287;30;877;-84
2022/04/24 00:10:58;;;;;;;;;;;;;;;;;;323216;30;841;-83
2022/04/24 00:11:09;;;;;;;;;;;;;;;;;;323273;30;798;-84
2022/04/24 00:11:19;;;;;;;;;;;;;;;;;;323178;30;972;-86
2022/04/24 00:11:30;;;;;;;;;;;;;;;;;;323059;30;1025;-83
2022/04/24 00:11:41;;;;;;;;;;;;;;;;;;323220;30;933;-84
2022/04/24 00:11:51;;;;;;;;;;;;;;;;;;323163;30;937;-83
2022/04/24 00:12:02;;;;;;;;;;;;;;;;;;323125;30;988;-83
2022/04/24 00:12:16;;;;;;;;;;;;;;;;;;323050;30;929;-83
2022/04/24 00:12:27;;;;;;;;;;;;;;;;;;323210;30;941;-83
2022/04/24 00:12:37;;;;;;;;;;;;;;;;;;322581;30;1505;-83
2022/04/24 00:12:48;;;;;;;;;;;;;;;;;;322856;30;1688;-83
2022/04/24 00:12:58;;;;;;;;;;;;;;;;;;323147;30;833;-83
2022/04/24 00:13:09;;;;;;;;;;;;;;;;;;323045;30;1013;-83
2022/04/24 00:13:19;;;;;;;;;;;;;;;;;;323245;30;956;-83
2022/04/24 00:13:37;;;;;;;;;;;;;;;;;;323140;30;1008;-83
2022/04/24 00:13:47;;;;;;;;;;;;;;;;;;323048;30;823;-85
2022/04/24 00:13:57;;;;;;;;;;;;;;;;;;323133;30;793;-84
2022/04/24 00:14:10;;;;;;;;;;;;;;;;;;323115;30;1110;-83
2022/04/24 00:14:20;;;;;;;;;;;;;;;;;;323194;30;854;-83
2022/04/24 00:14:31;;;;;;;;;;;;;;;;;;323139;30;1019;-83
2022/04/24 00:14:42;;;;;;;;;;;;;;;;;;323224;30;909;-84
2022/04/24 00:14:52;;;;;;;;;;;;;;;;;;323067;30;779;-83
2022/04/24 00:15:02;;;;;;;;;;;;;;;;;;322505;30;1488;-83
2022/04/24 00:15:13;;;;;;;;;;;;;;;;;;323173;30;916;-83
2022/04/24 00:15:23;;;;;;;;;;;;;;;;;;323174;30;932;-83
2022/04/24 00:15:33;;;;;;;;;;;;;;;;;;323162;30;889;-84
2022/04/24 00:15:43;;;;;;;;;;;;;;;;;;323133;30;1035;-85
2022/04/24 00:15:54;;;;;;;;;;;;;;;;;;323249;30;755;-84
2022/04/24 00:16:05;;;;;;;;;;;;;;;;;;323126;30;921;-83
2022/04/24 00:16:15;;;;;;;;;;;;;;;;;;323263;30;972;-83
2022/04/24 00:16:26;;;;;;;;;;;;;;;;;;323132;30;989;-83
2022/04/24 00:16:37;;;;;;;;;;;;;;;;;;323164;30;911;-83
2022/04/24 00:16:47;;;;;;;;;;;;;;;;;;323191;30;949;-83
2022/04/24 00:16:57;;;;;;;;;;;;;;;;;;323232;30;1015;-84
2022/04/24 00:17:08;;;;;;;;;;;;;;;;;;322326;30;1464;-84
2022/04/24 00:17:20;;;;;;;;;;;;;;;;;;323143;30;1046;-84
2022/04/24 00:17:30;;;;;;;;;;;;;;;;;;323178;30;837;-83
2022/04/24 00:17:41;;;;;;;;;;;;;;;;;;323201;30;928;-83
2022/04/24 00:17:51;;;;;;;;;;;;;;;;;;323169;30;940;-83
2022/04/24 00:18:01;;;;;;;;;;;;;;;;;;323141;30;948;-83
2022/04/24 00:18:12;;;;;;;;;;;;;;;;;;323092;30;980;-83
2022/04/24 00:18:22;;;;;;;;;;;;;;;;;;323235;30;813;-83
2022/04/24 00:18:32;;;;;;;;;;;;;;;;;;323197;30;916;-83
2022/04/24 00:18:43;;;;;;;;;;;;;;;;;;323183;30;1040;-83
2022/04/24 00:18:53;;;;;;;;;;;;;;;;;;322683;30;1404;-82
2022/04/24 00:19:04;;;;;;;;;;;;;;;;;;323166;30;827;-83
2022/04/24 00:19:18;;;;;;;;;;;;;;;;;;323090;30;1052;-83
2022/04/24 00:19:29;;;;;;;;;;;;;;;;;;323182;30;877;-83
2022/04/24 00:19:39;;;;;;;;;;;;;;;;;;323012;30;1009;-84
2022/04/24 00:19:49;;;;;;;;;;;;;;;;;;323235;30;913;-84
2022/04/24 00:19:59;;;;;;;;;;;;;;;;;;323119;30;802;-83
2022/04/24 00:20:10;;;;;;;;;;;;;;;;;;323090;30;909;-84
2022/04/24 00:20:20;;;;;;;;;;;;;;;;;;322894;30;1138;-84
2022/04/24 00:20:31;;;;;;;;;;;;;;;;;;322977;30;1156;-83
2022/04/24 00:20:42;;;;;;;;;;;;;;;;;;322976;30;1039;-83
2022/04/24 00:20:52;;;;;;;;;;;;;;;;;;323172;30;924;-83
2022/04/24 00:21:04;;;;;;;;;;;;;;;;;;323146;30;921;-83
2022/04/24 00:21:14;;;;;;;;;;;;;;;;;;323152;30;893;-83
2022/04/24 00:21:25;;;;;;;;;;;;;;;;;;323159;30;882;-83
2022/04/24 00:21:35;;;;;;;;;;;;;;;;;;323191;30;925;-84
2022/04/24 00:21:45;;;;;;;;;;;;;;;;;;323167;30;1083;-84
2022/04/24 00:21:57;;;;;;;;;;;;;;;;;;323165;30;873;-83
2022/04/24 00:22:08;;;;;;;;;;;;;;;;;;323114;30;1032;-83
2022/04/24 00:22:18;;;;;;;;;;;;;;;;;;323084;30;1027;-83
2022/04/24 00:22:28;;;;;;;;;;;;;;;;;;323184;30;850;-83
2022/04/24 00:22:38;;;;;;;;;;;;;;;;;;322551;30;1318;-83
2022/04/24 00:22:49;;;;;;;;;;;;;;;;;;323158;30;972;-83
2022/04/24 00:22:59;;;;;;;;;;;;;;;;;;323200;30;841;-84
2022/04/24 00:23:09;;;;;;;;;;;;;;;;;;322520;30;1309;-83
2022/04/24 00:23:20;;;;;;;;;;;;;;;;;;323031;30;1075;-83
2022/04/24 00:23:31;;;;;;;;;;;;;;;;;;322950;30;1133;-83
2022/04/24 00:23:41;;;;;;;;;;;;;;;;;;323159;30;1908;-83
2022/04/24 00:23:51;;;;;;;;;;;;;;;;;;323197;30;979;-83
2022/04/24 00:24:02;;;;;;;;;;;;;;;;;;323190;30;1036;-83
2022/04/24 00:24:13;;;;;;;;;;;;;;;;;;323132;30;952;-83
2022/04/24 00:24:24;;;;;;;;;;;;;;;;;;323094;30;917;-83
2022/04/24 00:24:35;;;;;;;;;;;;;;;;;;323148;30;937;-83
2022/04/24 00:24:45;;;;;;;;;;;;;;;;;;322981;30;1033;-83
2022/04/24 00:24:55;;;;;;;;;;;;;;;;;;323119;30;929;-83
2022/04/24 00:25:06;;;;;;;;;;;;;;;;;;323152;30;971;-83
2022/04/24 00:25:16;;;;;;;;;;;;;;;;;;323118;30;1020;-84
2022/04/24 00:25:26;;;;;;;;;;;;;;;;;;323169;30;873;-83
2022/04/24 00:25:37;;;;;;;;;;;;;;;;;;322891;30;1183;-83
2022/04/24 00:25:47;;;;;;;;;;;;;;;;;;323164;30;948;-84
2022/04/24 00:25:58;;;;;;;;;;;;;;;;;;322950;30;1127;-84
2022/04/24 00:26:08;;;;;;;;;;;;;;;;;;323200;30;850;-83
2022/04/24 00:26:18;;;;;;;;;;;;;;;;;;322923;30;1164;-83
2022/04/24 00:26:29;;;;;;;;;;;;;;;;;;323116;30;984;-83
2022/04/24 00:26:39;;;;;;;;;;;;;;;;;;323131;30;1015;-83
2022/04/24 00:26:50;;;;;;;;;;;;;;;;;;323161;30;1003;-84
2022/04/24 00:27:00;;;;;;;;;;;;;;;;;;323127;30;940;-83
2022/04/24 00:27:10;;;;;;;;;;;;;;;;;;323174;30;1027;-83
2022/04/24 00:27:20;;;;;;;;;;;;;;;;;;322965;30;1101;-83
2022/04/24 00:27:32;;;;;;;;;;;;;;;;;;323194;30;767;-83
2022/04/24 00:27:42;;;;;;;;;;;;;;;;;;323157;30;940;-83
2022/04/24 00:27:52;;;;;;;;;;;;;;;;;;323177;30;774;-83
2022/04/24 00:28:03;;;;;;;;;;;;;;;;;;323032;30;1143;-83
2022/04/24 00:28:13;;;;;;;;;;;;;;;;;;323169;30;860;-84
2022/04/24 00:28:23;;;;;;;;;;;;;;;;;;323078;30;984;-83
2022/04/24 00:28:34;;;;;;;;;;;;;;;;;;322453;30;1385;-83
2022/04/24 00:28:44;;;;;;;;;;;;;;;;;;323179;30;916;-83
2022/04/24 00:28:54;;;;;;;;;;;;;;;;;;323184;30;782;-83
2022/04/24 00:29:05;;;;;;;;;;;;;;;;;;323085;30;857;-83
2022/04/24 00:29:15;;;;;;;;;;;;;;;;;;323172;30;952;-84
2022/04/24 00:29:25;;;;;;;;;;;;;;;;;;323163;30;1047;-83
2022/04/24 00:29:36;;;;;;;;;;;;;;;;;;323162;30;964;-83
2022/04/24 00:29:47;;;;;;;;;;;;;;;;;;323141;30;916;-83
2022/04/24 00:29:57;;;;;;;;;;;;;;;;;;323155;30;833;-83
2022/04/24 00:30:07;;;;;;;;;;;;;;;;;;322952;30;1032;-83
2022/04/24 00:30:17;;;;;;;;;;;;;;;;;;323131;30;802;-84
2022/04/24 00:30:28;;;;;;;;;;;;;;;;;;322940;30;1266;-83
2022/04/24 00:30:38;;;;;;;;;;;;;;;;;;322567;30;1412;-83
2022/04/24 00:30:48;;;;;;;;;;;;;;;;;;323176;30;964;-83
2022/04/24 00:30:59;;;;;;;;;;;;;;;;;;323147;30;1024;-83
2022/04/24 00:31:09;;;;;;;;;;;;;;;;;;323145;30;910;-83
2022/04/24 00:31:19;;;;;;;;;;;;;;;;;;323141;30;913;-83
2022/04/24 00:31:29;;;;;;;;;;;;;;;;;;323171;30;865;-83
2022/04/24 00:31:40;;;;;;;;;;;;;;;;;;323166;30;881;-83
2022/04/24 00:31:50;;;;;;;;;;;;;;;;;;323087;30;1019;-83
2022/04/24 00:32:00;;;;;;;;;;;;;;;;;;322948;30;929;-83
2022/04/24 00:32:10;;;;;;;;;;;;;;;;;;323194;30;794;-83
2022/04/24 00:32:21;;;;;;;;;;;;;;;;;;323159;30;881;-83
2022/04/24 00:32:31;;;;;;;;;;;;;;;;;;323125;30;952;-83
2022/04/24 00:32:41;;;;;;;;;;;;;;;;;;323128;30;980;-83
2022/04/24 00:32:51;;;;;;;;;;;;;;;;;;323120;30;973;-83
2022/04/24 00:33:01;;;;;;;;;;;;;;;;;;322986;30;1002;-83
2022/04/24 00:33:12;;;;;;;;;;;;;;;;;;323033;30;1009;-83
2022/04/24 00:33:22;;;;;;;;;;;;;;;;;;323198;30;889;-83
2022/04/24 00:33:32;;;;;;;;;;;;;;;;;;323109;30;988;-83
2022/04/24 00:33:43;;;;;;;;;;;;;;;;;;322988;30;1021;-83
2022/04/24 00:33:53;;;;;;;;;;;;;;;;;;323173;30;912;-83
2022/04/24 00:34:03;;;;;;;;;;;;;;;;;;323142;30;964;-83
2022/04/24 00:34:13;;;;;;;;;;;;;;;;;;322992;30;1002;-83
2022/04/24 00:34:24;;;;;;;;;;;;;;;;;;323059;30;941;-83
2022/04/24 00:34:35;;;;;;;;;;;;;;;;;;323156;30;893;-83
2022/04/24 00:34:45;;;;;;;;;;;;;;;;;;323146;30;869;-84
2022/04/24 00:34:55;;;;;;;;;;;;;;;;;;323019;30;1128;-84
2022/04/24 00:35:06;;;;;;;;;;;;;;;;;;323027;30;988;-83
2022/04/24 00:35:16;;;;;;;;;;;;;;;;;;323132;30;940;-83
2022/04/24 00:35:26;;;;;;;;;;;;;;;;;;323144;30;1016;-83
2022/04/24 00:35:36;;;;;;;;;;;;;;;;;;323163;30;862;-83
2022/04/24 00:35:47;;;;;;;;;;;;;;;;;;323024;30;1144;-83
2022/04/24 00:35:57;;;;;;;;;;;;;;;;;;323000;30;1029;-83
2022/04/24 00:36:07;;;;;;;;;;;;;;;;;;323190;30;830;-84
2022/04/24 00:36:17;;;;;;;;;;;;;;;;;;323210;30;944;-84
2022/04/24 00:36:28;;;;;;;;;;;;;;;;;;323207;30;873;-83
2022/04/24 00:36:38;;;;;;;;;;;;;;;;;;322991;30;1227;-83
2022/04/24 00:36:48;;;;;;;;;;;;;;;;;;323247;30;1015;-83
2022/04/24 00:36:59;;;;;;;;;;;;;;;;;;322880;30;1020;-83
2022/04/24 00:37:09;;;;;;;;;;;;;;;;;;323106;30;1136;-83
2022/04/24 00:37:19;;;;;;;;;;;;;;;;;;323159;30;996;-84
2022/04/24 00:37:29;;;;;;;;;;;;;;;;;;322344;30;1479;-83
2022/04/24 00:37:40;;;;;;;;;;;;;;;;;;323165;30;957;-83
2022/04/24 00:37:50;;;;;;;;;;;;;;;;;;323107;30;964;-83
2022/04/24 00:38:00;;;;;;;;;;;;;;;;;;323018;30;1012;-83
2022/04/24 00:38:10;;;;;;;;;;;;;;;;;;323146;30;913;-83
2022/04/24 00:38:21;;;;;;;;;;;;;;;;;;323076;30;1059;-83
2022/04/24 00:38:32;;;;;;;;;;;;;;;;;;323123;30;917;-83
2022/04/24 00:38:42;;;;;;;;;;;;;;;;;;323091;30;988;-83
2022/04/24 00:38:52;;;;;;;;;;;;;;;;;;323118;30;1020;-83
2022/04/24 00:39:03;;;;;;;;;;;;;;;;;;323049;30;1047;-83
2022/04/24 00:39:13;;;;;;;;;;;;;;;;;;323169;30;874;-83
2022/04/24 00:39:24;;;;;;;;;;;;;;;;;;322994;30;1180;-83
2022/04/24 00:39:34;;;;;;;;;;;;;;;;;;323112;30;909;-83
2022/04/24 00:39:44;;;;;;;;;;;;;;;;;;323148;30;956;-83
2022/04/24 00:39:54;;;;;;;;;;;;;;;;;;323011;30;1006;-83
2022/04/24 00:40:05;;;;;;;;;;;;;;;;;;323024;30;1044;-83
2022/04/24 00:40:15;;;;;;;;;;;;;;;;;;323168;30;1007;-83
2022/04/24 00:40:25;;;;;;;;;;;;;;;;;;323100;30;981;-83
2022/04/24 00:40:36;;;;;;;;;;;;;;;;;;323150;30;917;-83
2022/04/24 00:40:47;;;;;;;;;;;;;;;;;;323090;30;767;-83
2022/04/24 00:40:57;;;;;;;;;;;;;;;;;;323118;30;856;-83
2022/04/24 00:41:07;;;;;;;;;;;;;;;;;;323094;30;1004;-83
2022/04/24 00:41:17;;;;;;;;;;;;;;;;;;323020;30;998;-83
2022/04/24 00:41:28;;;;;;;;;;;;;;;;;;323103;30;914;-83
2022/04/24 00:41:45;;;;;;;;;;;;;;;;;;323138;30;929;-83
2022/04/24 00:41:55;;;;;;;;;;;;;;;;;;322994;30;936;-83
2022/04/24 00:42:09;;;;;;;;;;;;;;;;;;323090;30;941;-83
2022/04/24 00:42:19;;;;;;;;;;;;;;;;;;323082;30;913;-83
2022/04/24 00:42:29;;;;;;;;;;;;;;;;;;323147;30;992;-83
2022/04/24 00:42:39;;;;;;;;;;;;;;;;;;323175;30;1004;-83
2022/04/24 00:42:50;;;;;;;;;;;;;;;;;;323208;30;1031;-84
2022/04/24 00:43:00;;;;;;;;;;;;;;;;;;323181;30;873;-83
2022/04/24 00:43:11;;;;;;;;;;;;;;;;;;323073;30;988;-83
2022/04/24 00:43:21;;;;;;;;;;;;;;;;;;322444;30;1398;-83
2022/04/24 00:43:31;;;;;;;;;;;;;;;;;;322987;30;1626;-83
2022/04/24 00:43:49;;;;;;;;;;;;;;;;;;322825;30;1920;-83
2022/04/24 00:43:59;;;;;;;;;;;;;;;;;;322961;30;1021;-83
2022/04/24 00:44:09;;;;;;;;;;;;;;;;;;323179;30;937;-83
2022/04/24 00:44:20;;;;;;;;;;;;;;;;;;323159;30;956;-83
2022/04/24 00:44:32;;;;;;;;;;;;;;;;;;322853;30;1405;-82
2022/04/24 00:44:42;;;;;;;;;;;;;;;;;;322884;30;1532;-83
2022/04/24 00:44:52;;;;;;;;;;;;;;;;;;323066;30;905;-83
2022/04/24 00:45:03;;;;;;;;;;;;;;;;;;323099;30;826;-83
2022/04/24 00:45:13;;;;;;;;;;;;;;;;;;323069;30;1010;-83
2022/04/24 00:45:23;;;;;;;;;;;;;;;;;;323097;30;945;-83
2022/04/24 00:45:34;;;;;;;;;;;;;;;;;;323129;30;1016;-83
2022/04/24 00:45:44;;;;;;;;;;;;;;;;;;323129;30;945;-83
2022/04/24 00:45:59;;;;;;;;;;;;;;;;;;323111;30;921;-83
2022/04/24 00:46:14;;;;;;;;;;;;;;;;;;323160;30;952;-83
2022/04/24 00:46:40;;;;;;;;;;;;;;;;;;323157;30;842;-83
2022/04/24 00:46:53;;;;;;;;;;;;;;;;;;323090;30;955;-83
2022/04/24 00:47:10;;;;;;;;;;;;;;;;;;323157;30;885;-83
2022/04/24 00:47:22;;;;;;;;;;;;;;;;;;323123;30;960;-84
2022/04/24 00:47:32;;;;;;;;;;;;;;;;;;323079;30;991;-83
2022/04/24 00:47:42;;;;;;;;;;;;;;;;;;323119;30;862;-83
2022/04/24 00:47:53;;;;;;;;;;;;;;;;;;323137;30;905;-83
2022/04/24 00:48:03;;;;;;;;;;;;;;;;;;323149;30;977;-84
2022/04/24 00:48:14;;;;;;;;;;;;;;;;;;323051;30;1083;-83
2022/04/24 00:48:24;;;;;;;;;;;;;;;;;;322623;30;1611;-83
2022/04/24 00:48:35;;;;;;;;;;;;;;;;;;323048;30;977;-83
2022/04/24 00:48:45;;;;;;;;;;;;;;;;;;323108;30;866;-83
2022/04/24 00:48:55;;;;;;;;;;;;;;;;;;323059;30;961;-83
2022/04/24 00:49:06;;;;;;;;;;;;;;;;;;323142;30;949;-83
2022/04/24 00:49:16;;;;;;;;;;;;;;;;;;323132;30;1040;-82
2022/04/24 00:49:26;;;;;;;;;;;;;;;;;;323087;30;984;-83
2022/04/24 00:49:38;;;;;;;;;;;;;;;;;;323160;30;884;-83
2022/04/24 00:49:49;;;;;;;;;;;;;;;;;;323105;30;897;-83
2022/04/24 00:49:59;;;;;;;;;;;;;;;;;;323111;30;846;-83
2022/04/24 00:50:10;;;;;;;;;;;;;;;;;;323143;30;996;-83
2022/04/24 00:50:20;;;;;;;;;;;;;;;;;;323139;30;914;-83
2022/04/24 00:50:30;;;;;;;;;;;;;;;;;;323164;30;881;-83
2022/04/24 00:50:43;;;;;;;;;;;;;;;;;;323222;30;894;-83
2022/04/24 00:50:53;;;;;;;;;;;;;;;;;;323147;30;933;-83
2022/04/24 00:51:04;;;;;;;;;;;;;;;;;;323149;30;957;-83
2022/04/24 00:51:14;;;;;;;;;;;;;;;;;;323257;30;897;-83
2022/04/24 00:51:24;;;;;;;;;;;;;;;;;;323148;30;961;-83
2022/04/24 00:51:37;;;;;;;;;;;;;;;;;;323066;30;1162;-83
2022/04/24 00:51:48;;;;;;;;;;;;;;;;;;323130;30;956;-83
2022/04/24 00:51:58;;;;;;;;;;;;;;;;;;323148;30;972;-83
2022/04/24 00:52:08;;;;;;;;;;;;;;;;;;323184;30;933;-83
2022/04/24 00:52:19;;;;;;;;;;;;;;;;;;323040;30;1307;-83
2022/04/24 00:52:29;;;;;;;;;;;;;;;;;;323135;30;952;-83
2022/04/24 00:52:39;;;;;;;;;;;;;;;;;;322981;30;1006;-83
2022/04/24 00:52:50;;;;;;;;;;;;;;;;;;322997;30;1138;-83
2022/04/24 00:53:00;;;;;;;;;;;;;;;;;;323166;30;1040;-83
2022/04/24 00:53:10;;;;;;;;;;;;;;;;;;323176;30;948;-83
2022/04/24 00:53:20;;;;;;;;;;;;;;;;;;322803;30;1249;-83
2022/04/24 00:53:32;;;;;;;;;;;;;;;;;;323080;30;1017;-83
2022/04/24 00:53:42;;;;;;;;;;;;;;;;;;323087;30;1012;-83
2022/04/24 00:53:53;;;;;;;;;;;;;;;;;;322997;30;1245;-83
2022/04/24 00:54:07;;;;;;;;;;;;;;;;;;323093;30;806;-83
2022/04/24 00:54:18;;;;;;;;;;;;;;;;;;322847;30;1018;-83
2022/04/24 00:54:28;;;;;;;;;;;;;;;;;;323015;30;1027;-83
2022/04/24 00:54:38;;;;;;;;;;;;;;;;;;323082;30;857;-83
2022/04/24 00:54:48;;;;;;;;;;;;;;;;;;323039;30;989;-83
2022/04/24 00:54:59;;;;;;;;;;;;;;;;;;323034;30;956;-83
2022/04/24 00:55:10;;;;;;;;;;;;;;;;;;322797;30;957;-83
2022/04/24 00:55:22;;;;;;;;;;;;;;;;;;322998;30;989;-83
2022/04/24 00:55:32;;;;;;;;;;;;;;;;;;323054;30;965;-84
2022/04/24 00:55:43;;;;;;;;;;;;;;;;;;322974;30;996;-83
2022/04/24 00:55:54;;;;;;;;;;;;;;;;;;322307;30;1502;-82
2022/04/24 00:56:07;;;;;;;;;;;;;;;;;;321941;30;810;-83
2022/04/24 00:56:18;;;;;;;;;;;;;;;;;;321941;30;1008;-83
2022/04/24 00:56:31;;;;;;;;;;;;;;;;;;321871;30;1045;-83
2022/04/24 00:56:42;;;;;;;;;;;;;;;;;;321973;30;1015;-83
2022/04/24 00:56:52;;;;;;;;;;;;;;;;;;321867;30;937;-83
2022/04/24 00:57:05;;;;;;;;;;;;;;;;;;322036;30;841;-83
2022/04/24 00:57:16;;;;;;;;;;;;;;;;;;322040;30;1057;-83
2022/04/24 00:57:26;;;;;;;;;;;;;;;;;;322033;30;949;-83
2022/04/24 00:57:37;;;;;;;;;;;;;;;;;;321927;30;953;-83
2022/04/24 00:57:47;;;;;;;;;;;;;;;;;;321855;30;973;-83
2022/04/24 00:57:57;;;;;;;;;;;;;;;;;;321941;30;922;-83
2022/04/24 00:58:09;;;;;;;;;;;;;;;;;;321889;30;1328;-83
2022/04/24 00:58:19;;;;;;;;;;;;;;;;;;322929;30;783;-83
2022/04/24 00:58:30;;;;;;;;;;;;;;;;;;323062;30;878;-83
2022/04/24 00:58:41;;;;;;;;;;;;;;;;;;323095;30;802;-83
2022/04/24 00:58:51;;;;;;;;;;;;;;;;;;323133;30;802;-83
2022/04/24 00:59:02;;;;;;;;;;;;;;;;;;323159;30;980;-84
2022/04/24 00:59:14;;;;;;;;;;;;;;;;;;323091;30;1004;-83
2022/04/24 00:59:24;;;;;;;;;;;;;;;;;;323139;30;988;-83
2022/04/24 00:59:34;;;;;;;;;;;;;;;;;;323142;30;831;-83
2022/04/24 00:59:45;;;;;;;;;;;;;;;;;;323083;30;941;-83
2022/04/24 00:59:55;;;;;;;;;;;;;;;;;;322492;30;1322;-83
2022/04/24 01:00:07;;;;;;;;;;;;;;;;;;321771;30;1361;-82
2022/04/24 01:00:17;;;;;;;;;;;;;;;;;;323082;30;960;-83
2022/04/24 01:00:28;;;;;;;;;;;;;;;;;;323112;30;925;-83
2022/04/24 01:00:38;;;;;;;;;;;;;;;;;;323101;30;956;-83
2022/04/24 01:00:48;;;;;;;;;;;;;;;;;;323062;30;1017;-83
2022/04/24 01:01:00;;;;;;;;;;;;;;;;;;323162;30;1000;-83
2022/04/24 01:01:10;;;;;;;;;;;;;;;;;;323191;30;976;-83
2022/04/24 01:01:20;;;;;;;;;;;;;;;;;;323082;30;991;-83
2022/04/24 01:01:31;;;;;;;;;;;;;;;;;;323164;30;936;-83
2022/04/24 01:01:42;;;;;;;;;;;;;;;;;;323081;30;1072;-83
2022/04/24 01:01:52;;;;;;;;;;;;;;;;;;323121;30;783;-83
2022/04/24 01:02:04;;;;;;;;;;;;;;;;;;323053;30;791;-83
2022/04/24 01:02:14;;;;;;;;;;;;;;;;;;323154;30;976;-83
2022/04/24 01:02:24;;;;;;;;;;;;;;;;;;322982;30;1017;-83
2022/04/24 01:02:37;;;;;;;;;;;;;;;;;;323185;30;843;-83
2022/04/24 01:02:47;;;;;;;;;;;;;;;;;;322361;30;1382;-83
2022/04/24 01:02:59;;;;;;;;;;;;;;;;;;323019;30;965;-83
2022/04/24 01:03:09;;;;;;;;;;;;;;;;;;323149;30;1051;-83
2022/04/24 01:03:20;;;;;;;;;;;;;;;;;;323084;30;930;-83
2022/04/24 01:03:30;;;;;;;;;;;;;;;;;;323022;30;1150;-83
2022/04/24 01:03:40;;;;;;;;;;;;;;;;;;323011;30;1900;-83
2022/04/24 01:03:52;;;;;;;;;;;;;;;;;;323000;30;905;-83
2022/04/24 01:04:04;;;;;;;;;;;;;;;;;;322988;30;977;-83
2022/04/24 01:04:15;;;;;;;;;;;;;;;;;;323123;30;838;-83
2022/04/24 01:04:26;;;;;;;;;;;;;;;;;;323163;30;908;-83
2022/04/24 01:04:36;;;;;;;;;;;;;;;;;;323065;30;1122;-83
2022/04/24 01:04:47;;;;;;;;;;;;;;;;;;323130;30;837;-83
2022/04/24 01:04:57;;;;;;;;;;;;;;;;;;321172;30;1353;-83
2022/04/24 01:05:08;;;;;;;;;;;;;;;;;;321850;30;918;-83
2022/04/24 01:05:18;;;;;;;;;;;;;;;;;;321860;30;925;-83
2022/04/24 01:05:29;;;;;;;;;;;;;;;;;;321869;30;917;-83
2022/04/24 01:05:39;;;;;;;;;;;;;;;;;;321810;30;993;-83
2022/04/24 01:05:49;;;;;;;;;;;;;;;;;;321875;30;1059;-83
2022/04/24 01:05:59;;;;;;;;;;;;;;;;;;321786;30;1077;-83
2022/04/24 01:06:10;;;;;;;;;;;;;;;;;;321793;30;928;-83
2022/04/24 01:06:20;;;;;;;;;;;;;;;;;;321889;30;968;-83
2022/04/24 01:06:39;;;;;;;;;;;;;;;;;;321804;30;933;-83
2022/04/24 01:06:50;;;;;;;;;;;;;;;;;;322126;30;1008;-83
2022/04/24 01:07:00;;;;;;;;;;;;;;;;;;322677;30;1574;-83
2022/04/24 01:07:11;;;;;;;;;;;;;;;;;;323031;30;1649;-83
2022/04/24 01:07:21;;;;;;;;;;;;;;;;;;323109;30;963;-83
2022/04/24 01:07:32;;;;;;;;;;;;;;;;;;323119;30;795;-83
2022/04/24 01:07:42;;;;;;;;;;;;;;;;;;323119;30;898;-83
2022/04/24 01:07:52;;;;;;;;;;;;;;;;;;323089;30;941;-83
2022/04/24 01:08:02;;;;;;;;;;;;;;;;;;323137;30;795;-83
2022/04/24 01:08:12;;;;;;;;;;;;;;;;;;322993;30;1032;-83
2022/04/24 01:08:23;;;;;;;;;;;;;;;;;;322958;30;944;-83
2022/04/24 01:08:36;;;;;;;;;;;;;;;;;;322969;30;811;-83
2022/04/24 01:08:46;;;;;;;;;;;;;;;;;;322902;30;973;-83
2022/04/24 01:09:07;;;;;;;;;;;;;;;;;;322950;30;901;-83
2022/04/24 01:09:18;;;;;;;;;;;;;;;;;;322944;30;957;-83
2022/04/24 01:09:30;;;;;;;;;;;;;;;;;;323143;30;933;-83
2022/04/24 01:09:41;;;;;;;;;;;;;;;;;;323115;30;874;-83
2022/04/24 01:09:51;;;;;;;;;;;;;;;;;;323096;30;863;-83
2022/04/24 01:10:01;;;;;;;;;;;;;;;;;;323124;30;894;-83
2022/04/24 01:10:11;;;;;;;;;;;;;;;;;;323073;30;806;-83
2022/04/24 01:10:22;;;;;;;;;;;;;;;;;;323109;30;885;-84
2022/04/24 01:10:39;;;;;;;;;;;;;;;;;;323131;30;893;-83
2022/04/24 01:10:49;;;;;;;;;;;;;;;;;;323077;30;826;-83
2022/04/24 01:11:00;;;;;;;;;;;;;;;;;;323161;30;968;-83
2022/04/24 01:11:10;;;;;;;;;;;;;;;;;;323131;30;897;-83
2022/04/24 01:11:20;;;;;;;;;;;;;;;;;;323033;30;1003;-83
2022/04/24 01:11:30;;;;;;;;;;;;;;;;;;323103;30;980;-83
2022/04/24 01:11:42;;;;;;;;;;;;;;;;;;323135;30;1004;-83
2022/04/24 01:11:53;;;;;;;;;;;;;;;;;;323112;30;956;-83
2022/04/24 01:12:04;;;;;;;;;;;;;;;;;;323138;30;929;-85
2022/04/24 01:12:14;;;;;;;;;;;;;;;;;;323072;30;854;-83
2022/04/24 01:12:25;;;;;;;;;;;;;;;;;;323128;30;882;-83
2022/04/24 01:12:35;;;;;;;;;;;;;;;;;;322990;30;1245;-83
2022/04/24 01:12:45;;;;;;;;;;;;;;;;;;323114;30;944;-83
2022/04/24 01:12:55;;;;;;;;;;;;;;;;;;323147;30;937;-83
2022/04/24 01:13:06;;;;;;;;;;;;;;;;;;322884;30;1032;-83
2022/04/24 01:13:16;;;;;;;;;;;;;;;;;;323068;30;991;-83
2022/04/24 01:13:26;;;;;;;;;;;;;;;;;;323031;30;1224;-83
2022/04/24 01:13:36;;;;;;;;;;;;;;;;;;323095;30;1205;-84
2022/04/24 01:13:47;;;;;;;;;;;;;;;;;;323056;30;1053;-83
2022/04/24 01:13:57;;;;;;;;;;;;;;;;;;323220;30;897;-83
2022/04/24 01:14:07;;;;;;;;;;;;;;;;;;322893;30;1153;-83
2022/04/24 01:14:19;;;;;;;;;;;;;;;;;;323013;30;1036;-83
2022/04/24 01:14:30;;;;;;;;;;;;;;;;;;323025;30;984;-83
2022/04/24 01:14:40;;;;;;;;;;;;;;;;;;323169;30;1000;-83
2022/04/24 01:14:51;;;;;;;;;;;;;;;;;;323187;30;896;-83
2022/04/24 01:15:01;;;;;;;;;;;;;;;;;;323146;30;925;-83
2022/04/24 01:15:12;;;;;;;;;;;;;;;;;;323080;30;922;-83
2022/04/24 01:15:23;;;;;;;;;;;;;;;;;;322881;30;1235;-83
2022/04/24 01:15:33;;;;;;;;;;;;;;;;;;323155;30;980;-83
2022/04/24 01:15:43;;;;;;;;;;;;;;;;;;323108;30;973;-84
2022/04/24 01:15:56;;;;;;;;;;;;;;;;;;323102;30;993;-83
2022/04/24 01:16:06;;;;;;;;;;;;;;;;;;323117;30;870;-84
2022/04/24 01:16:17;;;;;;;;;;;;;;;;;;323133;30;949;-83
2022/04/24 01:16:27;;;;;;;;;;;;;;;;;;322955;30;1146;-83
2022/04/24 01:16:37;;;;;;;;;;;;;;;;;;323077;30;1016;-83
2022/04/24 01:16:48;;;;;;;;;;;;;;;;;;323194;30;1060;-84